sensor_id;sensor_type;location;lat;lon;timestamp;pressure;altitude;pressure_sealevel;temperature;humidity
69171;BME280;56279;47.902;12.308;2024-03-06T00:01:41;95196.88;;;6.67;97.13
69171;BME280;56279;47.902;12.308;2024-03-06T00:03:42;95195.81;;;6.68;97.61
69171;BME280;56279;47.902;12.308;2024-03-06T00:05:44;95190.56;;;6.68;97.59
69171;BME280;56279;47.902;12.308;2024-03-06T00:07:45;95191.63;;;6.67;97.21
69171;BME280;56279;47.902;12.308;2024-03-06T00:09:47;95197.91;;;6.66;97.53
69171;BME280;56279;47.902;12.308;2024-03-06T00:11:48;95190.03;;;6.66;97.33
69171;BME280;56279;47.902;12.308;2024-03-06T00:13:52;95195.78;;;6.63;97.62
69171;BME280;56279;47.902;12.308;2024-03-06T00:15:55;95188.97;;;6.62;97.76
69171;BME280;56279;47.902;12.308;2024-03-06T00:17:57;95186.59;;;6.61;97.74
69171;BME280;56279;47.902;12.308;2024-03-06T00:19:59;95190.28;;;6.60;97.82
69171;BME280;56279;47.902;12.308;2024-03-06T00:22:00;95182.41;;;6.60;97.63
69171;BME280;56279;47.902;12.308;2024-03-06T00:24:03;95180.00;;;6.58;97.66
69171;BME280;56279;47.902;12.308;2024-03-06T00:26:05;95181.06;;;6.57;97.67
69171;BME280;56279;47.902;12.308;2024-03-06T00:28:07;95174.25;;;6.56;97.32
69171;BME280;56279;47.902;12.308;2024-03-06T00:30:12;95175.31;;;6.55;97.37
69171;BME280;56279;47.902;12.308;2024-03-06T00:32:14;95178.44;;;6.52;97.42
69171;BME280;56279;47.902;12.308;2024-03-06T00:34:15;95174.75;;;6.48;97.38
69171;BME280;56279;47.902;12.308;2024-03-06T00:36:17;95168.94;;;6.41;97.47
69171;BME280;56279;47.902;12.308;2024-03-06T00:38:18;95172.59;;;6.40;97.75
69171;BME280;56279;47.902;12.308;2024-03-06T00:40:19;95174.69;;;6.38;97.70
69171;BME280;56279;47.902;12.308;2024-03-06T00:42:20;95180.19;;;6.37;97.00
69171;BME280;56279;47.902;12.308;2024-03-06T00:44:22;95178.84;;;6.34;97.51
69171;BME280;56279;47.902;12.308;2024-03-06T00:46:24;95183.31;;;6.34;97.54
69171;BME280;56279;47.902;12.308;2024-03-06T00:48:25;95186.94;;;6.33;97.56
69171;BME280;56279;47.902;12.308;2024-03-06T00:50:26;95189.84;;;6.31;97.44
69171;BME280;56279;47.902;12.308;2024-03-06T00:52:28;95188.50;;;6.28;97.69
69171;BME280;56279;47.902;12.308;2024-03-06T00:54:29;95189.00;;;6.25;97.42
69171;BME280;56279;47.902;12.308;2024-03-06T00:56:30;95193.97;;;6.22;97.79
69171;BME280;56279;47.902;12.308;2024-03-06T00:58:32;95194.47;;;6.19;97.81
69171;BME280;56279;47.902;12.308;2024-03-06T01:00:33;95192.38;;;6.16;97.38
69171;BME280;56279;47.902;12.308;2024-03-06T01:02:34;95194.41;;;6.09;97.57
69171;BME280;56279;47.902;12.308;2024-03-06T01:04:36;95193.09;;;6.06;97.65
69171;BME280;56279;47.902;12.308;2024-03-06T01:06:37;95195.41;;;6.03;97.70
69171;BME280;56279;47.902;12.308;2024-03-06T01:08:39;95190.38;;;5.96;97.13
69171;BME280;56279;47.902;12.308;2024-03-06T01:10:40;95192.47;;;5.94;97.56
69171;BME280;56279;47.902;12.308;2024-03-06T01:12:41;95194.50;;;5.87;97.73
69171;BME280;56279;47.902;12.308;2024-03-06T01:14:46;95199.22;;;5.85;97.25
69171;BME280;56279;47.902;12.308;2024-03-06T01:16:48;95200.16;;;5.79;97.17
69171;BME280;56279;47.902;12.308;2024-03-06T01:18:49;95203.78;;;5.73;97.35
69171;BME280;56279;47.902;12.308;2024-03-06T01:20:51;95200.88;;;5.70;97.52
69171;BME280;56279;47.902;12.308;2024-03-06T01:22:53;95198.22;;;5.65;97.33
69171;BME280;56279;47.902;12.308;2024-03-06T01:24:55;95201.59;;;5.60;97.14
69171;BME280;56279;47.902;12.308;2024-03-06T01:26:59;95198.94;;;5.55;97.48
69171;BME280;56279;47.902;12.308;2024-03-06T01:29:03;95201.72;;;5.48;97.11
69171;BME280;56279;47.902;12.308;2024-03-06T01:31:04;95202.78;;;5.47;97.26
69171;BME280;56279;47.902;12.308;2024-03-06T01:33:06;95202.78;;;5.47;97.49
69171;BME280;56279;47.902;12.308;2024-03-06T01:35:07;95195.41;;;5.44;97.05
69171;BME280;56279;47.902;12.308;2024-03-06T01:37:09;95200.59;;;5.39;97.10
69171;BME280;56279;47.902;12.308;2024-03-06T01:39:10;95202.13;;;5.35;96.67
69171;BME280;56279;47.902;12.308;2024-03-06T01:41:12;95206.75;;;5.28;96.77
69171;BME280;56279;47.902;12.308;2024-03-06T01:43:20;95199.41;;;5.25;96.79
69171;BME280;56279;47.902;12.308;2024-03-06T01:45:27;95202.81;;;5.26;96.69
69171;BME280;56279;47.902;12.308;2024-03-06T01:47:28;95192.81;;;5.23;96.79
69171;BME280;56279;47.902;12.308;2024-03-06T01:49:29;95199.13;;;5.22;96.94
69171;BME280;56279;47.902;12.308;2024-03-06T01:51:32;95199.38;;;5.20;96.75
69171;BME280;56279;47.902;12.308;2024-03-06T01:53:34;95189.66;;;5.21;96.84
69171;BME280;56279;47.902;12.308;2024-03-06T01:55:37;95195.97;;;5.20;96.69
69171;BME280;56279;47.902;12.308;2024-03-06T01:57:39;95196.97;;;5.19;96.58
69171;BME280;56279;47.902;12.308;2024-03-06T01:59:42;95193.81;;;5.17;96.48
69171;BME280;56279;47.902;12.308;2024-03-06T02:01:44;95191.47;;;5.15;96.45
69171;BME280;56279;47.902;12.308;2024-03-06T02:03:46;95185.38;;;5.10;96.50
69171;BME280;56279;47.902;12.308;2024-03-06T02:05:48;95189.53;;;5.06;96.08
69171;BME280;56279;47.902;12.308;2024-03-06T02:07:53;95192.38;;;5.04;96.70
69171;BME280;56279;47.902;12.308;2024-03-06T02:09:55;95190.56;;;5.05;96.88
69171;BME280;56279;47.902;12.308;2024-03-06T02:11:56;95186.84;;;5.01;96.49
69171;BME280;56279;47.902;12.308;2024-03-06T02:13:57;95182.09;;;4.98;96.51
69171;BME280;56279;47.902;12.308;2024-03-06T02:15:59;95184.19;;;4.96;96.53
69171;BME280;56279;47.902;12.308;2024-03-06T02:18:06;95187.34;;;4.98;96.63
69171;BME280;56279;47.902;12.308;2024-03-06T02:20:09;95187.09;;;4.99;96.61
69171;BME280;56279;47.902;12.308;2024-03-06T02:22:14;95188.66;;;5.00;96.42
69171;BME280;56279;47.902;12.308;2024-03-06T02:24:18;95187.34;;;4.98;96.42
69171;BME280;56279;47.902;12.308;2024-03-06T02:26:21;95192.56;;;4.98;96.32
69171;BME280;56279;47.902;12.308;2024-03-06T02:28:24;95189.16;;;4.97;96.55
69171;BME280;56279;47.902;12.308;2024-03-06T02:30:26;95187.03;;;4.94;96.49
69171;BME280;56279;47.902;12.308;2024-03-06T02:32:27;95189.13;;;4.92;96.60
69171;BME280;56279;47.902;12.308;2024-03-06T02:34:28;95189.59;;;4.89;96.38
69171;BME280;56279;47.902;12.308;2024-03-06T02:36:30;95191.19;;;4.90;96.47
69171;BME280;56279;47.902;12.308;2024-03-06T02:38:35;95193.25;;;4.88;96.35
69171;BME280;56279;47.902;12.308;2024-03-06T02:40:37;95184.06;;;4.85;96.60
69171;BME280;56279;47.902;12.308;2024-03-06T02:42:39;95181.69;;;4.84;96.72
69171;BME280;56279;47.902;12.308;2024-03-06T02:44:41;95188.00;;;4.88;96.71
69171;BME280;56279;47.902;12.308;2024-03-06T02:46:47;95184.63;;;4.87;96.79
69171;BME280;56279;47.902;12.308;2024-03-06T02:48:49;95188.00;;;4.88;96.69
69171;BME280;56279;47.902;12.308;2024-03-06T02:50:57;95181.44;;;4.85;96.52
69171;BME280;56279;47.902;12.308;2024-03-06T02:52:58;95186.31;;;4.77;96.61
69171;BME280;56279;47.902;12.308;2024-03-06T02:54:59;95189.13;;;4.70;96.54
69171;BME280;56279;47.902;12.308;2024-03-06T02:57:01;95190.41;;;4.68;96.62
69171;BME280;56279;47.902;12.308;2024-03-06T02:59:02;95184.88;;;4.64;96.63
69171;BME280;56279;47.902;12.308;2024-03-06T03:01:04;95185.34;;;4.61;96.39
69171;BME280;56279;47.902;12.308;2024-03-06T03:03:06;95184.81;;;4.59;96.80
69171;BME280;56279;47.902;12.308;2024-03-06T03:05:08;95183.75;;;4.60;96.78
69171;BME280;56279;47.902;12.308;2024-03-06T03:07:10;95187.66;;;4.58;96.67
69171;BME280;56279;47.902;12.308;2024-03-06T03:09:11;95191.53;;;4.55;96.74
69171;BME280;56279;47.902;12.308;2024-03-06T03:11:13;95195.19;;;4.54;96.60
69171;BME280;56279;47.902;12.308;2024-03-06T03:13:15;95196.22;;;4.53;96.78
69171;BME280;56279;47.902;12.308;2024-03-06T03:15:16;95200.16;;;4.56;96.77
69171;BME280;56279;47.902;12.308;2024-03-06T03:17:19;95204.13;;;4.58;96.88
69171;BME280;56279;47.902;12.308;2024-03-06T03:19:21;95196.03;;;4.60;96.62
69171;BME280;56279;47.902;12.308;2024-03-06T03:21:23;95200.22;;;4.61;96.74
69171;BME280;56279;47.902;12.308;2024-03-06T03:23:24;95201.25;;;4.60;96.78
69171;BME280;56279;47.902;12.308;2024-03-06T03:25:25;95205.94;;;4.58;96.58
69171;BME280;56279;47.902;12.308;2024-03-06T03:27:27;95194.94;;;4.56;96.55
69171;BME280;56279;47.902;12.308;2024-03-06T03:29:29;95188.63;;;4.52;96.86
69171;BME280;56279;47.902;12.308;2024-03-06T03:31:32;95188.00;;;4.45;96.55
69171;BME280;56279;47.902;12.308;2024-03-06T03:33:38;95192.91;;;4.41;96.84
69171;BME280;56279;47.902;12.308;2024-03-06T03:35:39;95202.03;;;4.39;96.71
69171;BME280;56279;47.902;12.308;2024-03-06T03:37:42;95201.47;;;4.37;96.76
69171;BME280;56279;47.902;12.308;2024-03-06T03:39:45;95199.34;;;4.34;96.89
69171;BME280;56279;47.902;12.308;2024-03-06T03:41:48;95199.34;;;4.34;96.98
69171;BME280;56279;47.902;12.308;2024-03-06T03:43:51;95199.91;;;4.36;97.01
69171;BME280;56279;47.902;12.308;2024-03-06T03:45:53;95205.34;;;4.34;96.90
69171;BME280;56279;47.902;12.308;2024-03-06T03:47:54;95199.09;;;4.35;96.93
69171;BME280;56279;47.902;12.308;2024-03-06T03:49:56;95209.56;;;4.35;96.83
69171;BME280;56279;47.902;12.308;2024-03-06T03:51:59;95202.75;;;4.34;96.62
69171;BME280;56279;47.902;12.308;2024-03-06T03:54:00;95204.59;;;4.34;96.96
69171;BME280;56279;47.902;12.308;2024-03-06T03:56:02;95202.19;;;4.32;97.02
69171;BME280;56279;47.902;12.308;2024-03-06T03:58:04;95201.91;;;4.29;97.02
69171;BME280;56279;47.902;12.308;2024-03-06T04:00:08;95208.94;;;4.28;96.94
69171;BME280;56279;47.902;12.308;2024-03-06T04:02:13;95211.78;;;4.27;96.89
69171;BME280;56279;47.902;12.308;2024-03-06T04:04:14;95214.63;;;4.25;96.96
69171;BME280;56279;47.902;12.308;2024-03-06T04:06:15;95219.84;;;4.25;96.91
69171;BME280;56279;47.902;12.308;2024-03-06T04:08:17;95208.63;;;4.25;96.99
69171;BME280;56279;47.902;12.308;2024-03-06T04:10:18;95218.84;;;4.26;97.09
69171;BME280;56279;47.902;12.308;2024-03-06T04:12:19;95214.88;;;4.24;96.64
69171;BME280;56279;47.902;12.308;2024-03-06T04:14:22;95220.09;;;4.24;97.17
69171;BME280;56279;47.902;12.308;2024-03-06T04:16:23;95215.91;;;4.22;96.94
69171;BME280;56279;47.902;12.308;2024-03-06T04:18:24;95218.75;;;4.21;96.73
69171;BME280;56279;47.902;12.308;2024-03-06T04:20:26;95223.72;;;4.22;96.78
69171;BME280;56279;47.902;12.308;2024-03-06T04:22:27;95219.56;;;4.22;96.96
69171;BME280;56279;47.902;12.308;2024-03-06T04:24:29;95222.97;;;4.22;96.93
69171;BME280;56279;47.902;12.308;2024-03-06T04:26:32;95232.88;;;4.20;96.84
69171;BME280;56279;47.902;12.308;2024-03-06T04:28:33;95229.44;;;4.19;96.71
69171;BME280;56279;47.902;12.308;2024-03-06T04:30:35;95227.06;;;4.18;96.83
69171;BME280;56279;47.902;12.308;2024-03-06T04:32:36;95231.50;;;4.17;97.02
69171;BME280;56279;47.902;12.308;2024-03-06T04:34:43;95230.00;;;4.22;97.01
69171;BME280;56279;47.902;12.308;2024-03-06T04:36:45;95231.09;;;4.26;96.99
69171;BME280;56279;47.902;12.308;2024-03-06T04:38:46;95237.13;;;4.26;96.63
69171;BME280;56279;47.902;12.308;2024-03-06T04:40:52;95235.22;;;4.22;96.44
69171;BME280;56279;47.902;12.308;2024-03-06T04:42:53;95224.16;;;4.14;96.45
69171;BME280;56279;47.902;12.308;2024-03-06T04:44:56;95235.88;;;4.12;96.66
69171;BME280;56279;47.902;12.308;2024-03-06T04:46:57;95229.28;;;4.09;96.83
69171;BME280;56279;47.902;12.308;2024-03-06T04:48:58;95236.13;;;4.10;96.73
69171;BME280;56279;47.902;12.308;2024-03-06T04:51:00;95236.66;;;4.12;97.03
69171;BME280;56279;47.902;12.308;2024-03-06T04:53:02;95244.16;;;4.09;96.65
69171;BME280;56279;47.902;12.308;2024-03-06T04:55:06;95243.63;;;4.07;96.75
69171;BME280;56279;47.902;12.308;2024-03-06T04:57:09;95246.78;;;4.09;96.88
69171;BME280;56279;47.902;12.308;2024-03-06T04:59:10;95250.72;;;4.11;96.89
69171;BME280;56279;47.902;12.308;2024-03-06T05:01:12;95254.69;;;4.14;96.25
69171;BME280;56279;47.902;12.308;2024-03-06T05:03:15;95253.69;;;4.15;96.68
69171;BME280;56279;47.902;12.308;2024-03-06T05:05:16;95257.31;;;4.14;96.23
69171;BME280;56279;47.902;12.308;2024-03-06T05:07:19;95255.94;;;4.11;96.42
69171;BME280;56279;47.902;12.308;2024-03-06T05:09:24;95257.56;;;4.12;96.38
69171;BME280;56279;47.902;12.308;2024-03-06T05:11:25;95258.34;;;4.13;96.30
69171;BME280;56279;47.902;12.308;2024-03-06T05:13:26;95263.00;;;4.11;96.21
69171;BME280;56279;47.902;12.308;2024-03-06T05:15:28;95261.19;;;4.11;96.19
69171;BME280;56279;47.902;12.308;2024-03-06T05:17:30;95265.59;;;4.11;96.03
69171;BME280;56279;47.902;12.308;2024-03-06T05:19:32;95267.44;;;4.10;96.57
69171;BME280;56279;47.902;12.308;2024-03-06T05:21:33;95270.06;;;4.10;96.38
69171;BME280;56279;47.902;12.308;2024-03-06T05:23:38;95271.63;;;4.11;96.24
69171;BME280;56279;47.902;12.308;2024-03-06T05:25:39;95275.03;;;4.12;96.35
69171;BME280;56279;47.902;12.308;2024-03-06T05:27:41;95275.81;;;4.12;96.23
69171;BME280;56279;47.902;12.308;2024-03-06T05:29:43;95278.19;;;4.14;96.45
69171;BME280;56279;47.902;12.308;2024-03-06T05:31:44;95271.16;;;4.14;96.05
69171;BME280;56279;47.902;12.308;2024-03-06T05:33:49;95282.63;;;4.13;96.57
69171;BME280;56279;47.902;12.308;2024-03-06T05:35:50;95286.03;;;4.14;96.47
69171;BME280;56279;47.902;12.308;2024-03-06T05:37:52;95281.59;;;4.14;96.05
69171;BME280;56279;47.902;12.308;2024-03-06T05:39:54;95285.47;;;4.12;96.43
69171;BME280;56279;47.902;12.308;2024-03-06T05:41:59;95287.28;;;4.11;96.32
69171;BME280;56279;47.902;12.308;2024-03-06T05:44:00;95290.94;;;4.10;96.37
69171;BME280;56279;47.902;12.308;2024-03-06T05:46:10;95289.91;;;4.11;96.50
69171;BME280;56279;47.902;12.308;2024-03-06T05:48:13;95298.78;;;4.10;96.31
69171;BME280;56279;47.902;12.308;2024-03-06T05:50:17;95299.00;;;4.09;95.98
69171;BME280;56279;47.902;12.308;2024-03-06T05:52:19;95287.53;;;4.10;96.17
69171;BME280;56279;47.902;12.308;2024-03-06T05:54:25;95303.50;;;4.13;96.38
69171;BME280;56279;47.902;12.308;2024-03-06T05:56:26;95296.47;;;4.14;96.25
69171;BME280;56279;47.902;12.308;2024-03-06T05:58:28;95302.25;;;4.16;96.39
69171;BME280;56279;47.902;12.308;2024-03-06T06:00:29;95311.44;;;4.18;96.20
69171;BME280;56279;47.902;12.308;2024-03-06T06:02:30;95306.66;;;4.15;96.21
69171;BME280;56279;47.902;12.308;2024-03-06T06:04:32;95310.56;;;4.13;95.95
69171;BME280;56279;47.902;12.308;2024-03-06T06:06:33;95304.78;;;4.11;96.17
69171;BME280;56279;47.902;12.308;2024-03-06T06:08:37;95311.25;;;4.08;96.34
69171;BME280;56279;47.902;12.308;2024-03-06T06:10:38;95308.34;;;4.05;95.67
69171;BME280;56279;47.902;12.308;2024-03-06T06:12:39;95306.19;;;4.02;96.01
69171;BME280;56279;47.902;12.308;2024-03-06T06:14:42;95320.03;;;4.02;96.30
69171;BME280;56279;47.902;12.308;2024-03-06T06:16:43;95320.03;;;4.02;96.32
69171;BME280;56279;47.902;12.308;2024-03-06T06:18:45;95321.06;;;4.01;96.04
69171;BME280;56279;47.902;12.308;2024-03-06T06:20:46;95326.84;;;4.03;96.45
69171;BME280;56279;47.902;12.308;2024-03-06T06:22:49;95322.19;;;4.05;96.24
69171;BME280;56279;47.902;12.308;2024-03-06T06:24:50;95323.00;;;4.06;96.07
69171;BME280;56279;47.902;12.308;2024-03-06T06:26:54;95331.69;;;4.11;96.04
69171;BME280;56279;47.902;12.308;2024-03-06T06:28:56;95332.72;;;4.10;95.96
69171;BME280;56279;47.902;12.308;2024-03-06T06:30:59;95340.31;;;4.12;95.76
69171;BME280;56279;47.902;12.308;2024-03-06T06:33:00;95338.50;;;4.12;95.86
69171;BME280;56279;47.902;12.308;2024-03-06T06:35:01;95338.50;;;4.12;95.97
69171;BME280;56279;47.902;12.308;2024-03-06T06:37:03;95344.28;;;4.14;95.97
69171;BME280;56279;47.902;12.308;2024-03-06T06:39:04;95349.03;;;4.17;96.06
69171;BME280;56279;47.902;12.308;2024-03-06T06:41:07;95346.97;;;4.19;96.23
69171;BME280;56279;47.902;12.308;2024-03-06T06:43:11;95345.72;;;4.22;95.81
69171;BME280;56279;47.902;12.308;2024-03-06T06:45:14;95346.97;;;4.19;95.80
69171;BME280;56279;47.902;12.308;2024-03-06T06:47:16;95351.94;;;4.21;95.99
69171;BME280;56279;47.902;12.308;2024-03-06T06:49:26;95354.91;;;4.25;96.05
69171;BME280;56279;47.902;12.308;2024-03-06T06:51:30;95352.28;;;4.25;96.07
69171;BME280;56279;47.902;12.308;2024-03-06T06:53:32;95353.38;;;4.29;96.21
69171;BME280;56279;47.902;12.308;2024-03-06T06:55:33;95349.19;;;4.28;95.70
69171;BME280;56279;47.902;12.308;2024-03-06T06:57:34;95351.00;;;4.27;95.80
69171;BME280;56279;47.902;12.308;2024-03-06T06:59:36;95351.78;;;4.28;96.12
69171;BME280;56279;47.902;12.308;2024-03-06T07:01:39;95354.19;;;4.29;96.32
69171;BME280;56279;47.902;12.308;2024-03-06T07:03:42;95349.97;;;4.28;96.17
69171;BME280;56279;47.902;12.308;2024-03-06T07:05:44;95351.00;;;4.27;96.08
69171;BME280;56279;47.902;12.308;2024-03-06T07:07:45;95356.47;;;4.26;96.05
69171;BME280;56279;47.902;12.308;2024-03-06T07:09:47;95354.31;;;4.22;96.17
69171;BME280;56279;47.902;12.308;2024-03-06T07:11:50;95360.59;;;4.22;96.28
69171;BME280;56279;47.902;12.308;2024-03-06T07:13:52;95352.66;;;4.16;96.34
69171;BME280;56279;47.902;12.308;2024-03-06T07:15:53;95360.41;;;4.11;96.31
69171;BME280;56279;47.902;12.308;2024-03-06T07:17:56;95364.06;;;4.10;96.54
69171;BME280;56279;47.902;12.308;2024-03-06T07:19:57;95365.78;;;4.05;96.64
69171;BME280;56279;47.902;12.308;2024-03-06T07:21:58;95364.66;;;4.01;96.78
69171;BME280;56279;47.902;12.308;2024-03-06T07:24:01;95373.50;;;4.00;97.07
69171;BME280;56279;47.902;12.308;2024-03-06T07:26:02;95380.00;;;3.97;96.63
69171;BME280;56279;47.902;12.308;2024-03-06T07:28:04;95381.34;;;4.00;96.77
69171;BME280;56279;47.902;12.308;2024-03-06T07:30:06;95380.34;;;4.01;96.85
69171;BME280;56279;47.902;12.308;2024-03-06T07:32:08;95381.09;;;4.01;96.78
69171;BME280;56279;47.902;12.308;2024-03-06T07:34:11;95381.91;;;4.02;96.84
69171;BME280;56279;47.902;12.308;2024-03-06T07:36:13;95381.91;;;4.02;97.07
69171;BME280;56279;47.902;12.308;2024-03-06T07:38:14;95386.66;;;4.05;96.73
69171;BME280;56279;47.902;12.308;2024-03-06T07:40:16;95389.03;;;4.06;96.72
69171;BME280;56279;47.902;12.308;2024-03-06T07:42:19;95386.97;;;4.08;96.92
69171;BME280;56279;47.902;12.308;2024-03-06T07:44:22;95390.63;;;4.07;96.64
69171;BME280;56279;47.902;12.308;2024-03-06T07:46:23;95388.56;;;4.09;97.10
69171;BME280;56279;47.902;12.308;2024-03-06T07:48:26;95393.34;;;4.12;96.64
69171;BME280;56279;47.902;12.308;2024-03-06T07:50:27;95392.28;;;4.13;96.70
69171;BME280;56279;47.902;12.308;2024-03-06T07:52:28;95399.56;;;4.11;96.74
69171;BME280;56279;47.902;12.308;2024-03-06T07:54:31;95391.75;;;4.11;96.47
69171;BME280;56279;47.902;12.308;2024-03-06T07:56:34;95395.38;;;4.10;97.00
69171;BME280;56279;47.902;12.308;2024-03-06T07:58:35;95399.81;;;4.10;96.44
69171;BME280;56279;47.902;12.308;2024-03-06T08:00:37;95400.63;;;4.10;96.63
69171;BME280;56279;47.902;12.308;2024-03-06T08:02:40;95400.03;;;4.08;96.69
69171;BME280;56279;47.902;12.308;2024-03-06T08:04:43;95403.44;;;4.09;96.42
69171;BME280;56279;47.902;12.308;2024-03-06T08:06:45;95407.66;;;4.10;96.36
69171;BME280;56279;47.902;12.308;2024-03-06T08:08:47;95404.78;;;4.11;96.82
69171;BME280;56279;47.902;12.308;2024-03-06T08:10:50;95410.56;;;4.13;96.87
69171;BME280;56279;47.902;12.308;2024-03-06T08:12:51;95412.16;;;4.14;96.63
69171;BME280;56279;47.902;12.308;2024-03-06T08:14:58;95414.22;;;4.12;96.46
69171;BME280;56279;47.902;12.308;2024-03-06T08:16:59;95420.00;;;4.14;96.29
69171;BME280;56279;47.902;12.308;2024-03-06T08:19:01;95414.53;;;4.16;96.80
69171;BME280;56279;47.902;12.308;2024-03-06T08:21:03;95417.25;;;4.21;96.46
69171;BME280;56279;47.902;12.308;2024-03-06T08:23:07;95424.63;;;4.24;96.82
69171;BME280;56279;47.902;12.308;2024-03-06T08:25:10;95423.34;;;4.27;96.42
69171;BME280;56279;47.902;12.308;2024-03-06T08:27:11;95414.00;;;4.31;96.54
69171;BME280;56279;47.902;12.308;2024-03-06T08:29:12;95425.81;;;4.33;96.50
69171;BME280;56279;47.902;12.308;2024-03-06T08:31:15;95427.97;;;4.36;96.39
69171;BME280;56279;47.902;12.308;2024-03-06T08:33:16;95426.47;;;4.40;96.48
69171;BME280;56279;47.902;12.308;2024-03-06T08:35:18;95429.16;;;4.45;96.25
69171;BME280;56279;47.902;12.308;2024-03-06T08:37:22;95428.81;;;4.42;96.41
69171;BME280;56279;47.902;12.308;2024-03-06T08:39:23;95430.88;;;4.40;96.37
69171;BME280;56279;47.902;12.308;2024-03-06T08:41:25;95433.50;;;4.40;96.52
69171;BME280;56279;47.902;12.308;2024-03-06T08:43:28;95440.88;;;4.43;96.68
69171;BME280;56279;47.902;12.308;2024-03-06T08:45:31;95441.44;;;4.45;96.60
69171;BME280;56279;47.902;12.308;2024-03-06T08:47:32;95436.22;;;4.45;96.40
69171;BME280;56279;47.902;12.308;2024-03-06T08:49:34;95440.06;;;4.42;96.57
69171;BME280;56279;47.902;12.308;2024-03-06T08:51:35;95441.09;;;4.41;96.85
69171;BME280;56279;47.902;12.308;2024-03-06T08:53:37;95441.88;;;4.42;96.82
69171;BME280;56279;47.902;12.308;2024-03-06T08:55:39;95437.72;;;4.41;97.14
69171;BME280;56279;47.902;12.308;2024-03-06T08:57:40;95439.28;;;4.42;96.90
69171;BME280;56279;47.902;12.308;2024-03-06T08:59:42;95434.59;;;4.44;96.76
69171;BME280;56279;47.902;12.308;2024-03-06T09:01:44;95440.63;;;4.44;96.96
69171;BME280;56279;47.902;12.308;2024-03-06T09:03:46;95446.09;;;4.43;96.93
69171;BME280;56279;47.902;12.308;2024-03-06T09:05:48;95449.97;;;4.40;96.79
69171;BME280;56279;47.902;12.308;2024-03-06T09:07:49;95452.59;;;4.40;96.67
69171;BME280;56279;47.902;12.308;2024-03-06T09:09:55;95458.13;;;4.44;97.23
69171;BME280;56279;47.902;12.308;2024-03-06T09:11:57;95453.22;;;4.47;97.05
69171;BME280;56279;47.902;12.308;2024-03-06T09:13:59;95458.78;;;4.51;96.98
69171;BME280;56279;47.902;12.308;2024-03-06T09:16:00;95461.94;;;4.53;96.88
69171;BME280;56279;47.902;12.308;2024-03-06T09:18:03;95458.31;;;4.54;96.98
69171;BME280;56279;47.902;12.308;2024-03-06T09:20:06;95465.69;;;4.57;97.16
69171;BME280;56279;47.902;12.308;2024-03-06T09:22:12;95468.59;;;4.60;96.84
69171;BME280;56279;47.902;12.308;2024-03-06T09:24:15;95466.53;;;4.62;96.92
69171;BME280;56279;47.902;12.308;2024-03-06T09:26:16;95467.13;;;4.64;96.90
69171;BME280;56279;47.902;12.308;2024-03-06T09:28:18;95470.03;;;4.68;96.93
69171;BME280;56279;47.902;12.308;2024-03-06T09:30:20;95473.75;;;4.72;96.98
69171;BME280;56279;47.902;12.308;2024-03-06T09:32:21;95472.28;;;4.76;96.71
69171;BME280;56279;47.902;12.308;2024-03-06T09:34:26;95475.44;;;4.78;96.90
69171;BME280;56279;47.902;12.308;2024-03-06T09:36:29;95475.38;;;4.73;96.70
69171;BME280;56279;47.902;12.308;2024-03-06T09:38:31;95470.84;;;4.68;96.46
69171;BME280;56279;47.902;12.308;2024-03-06T09:40:32;95479.94;;;4.66;96.61
69171;BME280;56279;47.902;12.308;2024-03-06T09:42:34;95478.91;;;4.67;96.89
69171;BME280;56279;47.902;12.308;2024-03-06T09:44:36;95477.88;;;4.68;96.79
69171;BME280;56279;47.902;12.308;2024-03-06T09:46:37;95472.91;;;4.66;97.20
69171;BME280;56279;47.902;12.308;2024-03-06T09:48:46;95484.38;;;4.65;97.25
69171;BME280;56279;47.902;12.308;2024-03-06T09:50:49;95488.09;;;4.69;97.51
69171;BME280;56279;47.902;12.308;2024-03-06T09:52:55;95491.59;;;4.75;97.17
69171;BME280;56279;47.902;12.308;2024-03-06T09:54:56;95483.28;;;4.78;97.14
69171;BME280;56279;47.902;12.308;2024-03-06T09:56:58;95483.84;;;4.80;97.17
69171;BME280;56279;47.902;12.308;2024-03-06T09:59:01;95489.53;;;4.77;96.95
69171;BME280;56279;47.902;12.308;2024-03-06T10:01:05;95499.53;;;4.80;96.98
69171;BME280;56279;47.902;12.308;2024-03-06T10:03:10;95491.34;;;4.76;97.40
69171;BME280;56279;47.902;12.308;2024-03-06T10:05:23;95495.22;;;4.74;97.39
69171;BME280;56279;47.902;12.308;2024-03-06T10:07:24;95493.19;;;4.76;97.35
69171;BME280;56279;47.902;12.308;2024-03-06T10:09:28;95492.16;;;4.77;97.39
69171;BME280;56279;47.902;12.308;2024-03-06T10:11:30;95497.72;;;4.80;97.57
69171;BME280;56279;47.902;12.308;2024-03-06T10:13:33;95496.66;;;4.81;97.62
69171;BME280;56279;47.902;12.308;2024-03-06T10:15:34;95496.22;;;4.84;97.31
69171;BME280;56279;47.902;12.308;2024-03-06T10:17:38;95488.91;;;4.86;97.46
69171;BME280;56279;47.902;12.308;2024-03-06T10:19:39;95491.28;;;4.88;97.29
69171;BME280;56279;47.902;12.308;2024-03-06T10:21:40;95499.94;;;4.88;97.29
69171;BME280;56279;47.902;12.308;2024-03-06T10:23:42;95493.13;;;4.87;97.19
69171;BME280;56279;47.902;12.308;2024-03-06T10:25:43;95497.31;;;4.88;97.11
69171;BME280;56279;47.902;12.308;2024-03-06T10:27:46;95497.09;;;4.90;97.13
69171;BME280;56279;47.902;12.308;2024-03-06T10:30:01;95501.03;;;4.93;97.15
69171;BME280;56279;47.902;12.308;2024-03-06T10:32:03;95497.50;;;4.99;97.33
69171;BME280;56279;47.902;12.308;2024-03-06T10:34:04;95495.72;;;5.04;96.95
69171;BME280;56279;47.902;12.308;2024-03-06T10:36:10;95503.81;;;5.03;96.69
69171;BME280;56279;47.902;12.308;2024-03-06T10:38:14;95506.91;;;5.00;96.71
69171;BME280;56279;47.902;12.308;2024-03-06T10:40:16;95504.53;;;4.98;97.07
69171;BME280;56279;47.902;12.308;2024-03-06T10:42:21;95502.72;;;4.99;96.96
69171;BME280;56279;47.902;12.308;2024-03-06T10:44:24;95510.88;;;5.02;96.80
69171;BME280;56279;47.902;12.308;2024-03-06T10:46:27;95511.19;;;5.06;96.84
69171;BME280;56279;47.902;12.308;2024-03-06T10:48:30;95513.66;;;5.12;96.92